Time;durP1;ratioP1;P1;durP2;ratioP2;P2;SDS_P1;SDS_P2;PMS_P1;PMS_P2;Temp;Humidity;BMP_temperature;BMP_pressure;BME280_temperature;BME280_humidity;BME280_pressure;Samples;Min_cycle;Max_cycle;Signal;HPM_P1;HPM_P2
2024/02/07 00:01:59;;;;;;;2.53;1.20;;;15.70;74.20;;;;;;5007794;28;20072;-87
2024/02/07 00:04:25;;;;;;;2.80;0.95;;;15.70;74.90;;;;;;5002541;28;20042;-87
2024/02/07 00:06:50;;;;;;;0.98;0.95;;;15.70;74.10;;;;;;5015293;28;20416;-87
2024/02/07 00:09:16;;;;;;;1.25;1.02;;;15.70;74.00;;;;;;5014583;28;20042;-86
2024/02/07 00:11:43;;;;;;;0.90;0.90;;;15.70;74.00;;;;;;4988534;28;20780;-87
2024/02/07 00:14:08;;;;;;;1.10;1.10;;;15.70;74.10;;;;;;5004722;28;20516;-87
2024/02/07 00:16:34;;;;;;;1.45;1.35;;;15.70;74.20;;;;;;5004632;28;20073;-88
2024/02/07 00:18:59;;;;;;;2.20;1.20;;;15.70;74.10;;;;;;5014224;28;20538;-88
2024/02/07 00:21:25;;;;;;;1.40;1.30;;;15.70;74.00;;;;;;5015824;28;20512;-87
2024/02/07 00:23:51;;;;;;;1.40;1.13;;;15.70;74.00;;;;;;5002686;28;20153;-88
2024/02/07 00:26:17;;;;;;;0.90;0.90;;;15.70;74.00;;;;;;4999525;28;20050;-92
2024/02/07 00:28:42;;;;;;;1.60;1.10;;;15.70;74.10;;;;;;5009342;28;20050;-92
2024/02/07 00:31:08;;;;;;;1.30;1.20;;;15.70;74.10;;;;;;5008153;28;20049;-92
2024/02/07 00:33:34;;;;;;;5.00;1.20;;;15.70;74.10;;;;;;5005872;28;20045;-92
2024/02/07 00:35:59;;;;;;;1.50;1.25;;;15.70;73.90;;;;;;5008243;28;20509;-92
2024/02/07 00:38:25;;;;;;;1.05;0.95;;;15.70;74.00;;;;;;4984939;28;20524;-80
2024/02/07 00:40:50;;;;;;;2.38;0.80;;;15.70;74.00;;;;;;4999714;28;20046;-80
2024/02/07 00:43:16;;;;;;;1.20;1.00;;;15.70;74.00;;;;;;4999847;28;20043;-80
2024/02/07 00:45:42;;;;;;;2.60;1.10;;;15.70;74.00;;;;;;5000800;28;20092;-80
2024/02/07 00:48:07;;;;;;;0.90;0.90;;;15.70;74.10;;;;;;5015776;28;20479;-79
2024/02/07 00:50:33;;;;;;;2.80;1.27;;;15.70;74.10;;;;;;4983745;28;20042;-80
2024/02/07 00:52:58;;;;;;;1.85;0.90;;;15.70;74.00;;;;;;5016659;28;20088;-80
2024/02/07 00:55:24;;;;;;;0.90;0.90;;;15.70;74.10;;;;;;5017086;28;20101;-80
2024/02/07 00:57:50;;;;;;;1.20;1.10;;;15.70;73.90;;;;;;5003830;28;20511;-80
2024/02/07 01:00:16;;;;;;;1.30;1.20;;;15.70;74.00;;;;;;5010984;28;20424;-80
2024/02/07 01:02:42;;;;;;;1.52;1.02;;;15.70;74.00;;;;;;5013169;28;20054;-80
2024/02/07 01:05:08;;;;;;;1.30;1.20;;;15.70;74.00;;;;;;4998336;28;20096;-80
2024/02/07 01:07:34;;;;;;;0.90;0.90;;;15.70;74.00;;;;;;4987225;28;20084;-80
2024/02/07 01:10:00;;;;;;;1.15;1.08;;;15.70;74.00;;;;;;5004751;28;20073;-80
2024/02/07 01:12:25;;;;;;;1.20;1.00;;;15.70;74.00;;;;;;5017050;28;20070;-80
2024/02/07 01:14:52;;;;;;;2.05;1.30;;;15.70;74.00;;;;;;5020541;28;20030;-80
2024/02/07 01:17:18;;;;;;;1.00;1.00;;;15.60;74.00;;;;;;5011290;28;20042;-80
2024/02/07 01:19:43;;;;;;;1.52;1.20;;;15.70;74.10;;;;;;4986045;28;20420;-80
2024/02/07 01:22:09;;;;;;;1.13;1.00;;;15.60;73.90;;;;;;5000473;28;20092;-79
2024/02/07 01:24:34;;;;;;;1.00;1.00;;;15.70;74.10;;;;;;5004998;28;20050;-79
2024/02/07 01:27:00;;;;;;;1.00;1.00;;;15.70;74.00;;;;;;5018884;28;20136;-80
2024/02/07 01:29:25;;;;;;;1.00;1.00;;;15.60;74.00;;;;;;4986839;28;20045;-80
2024/02/07 01:31:52;;;;;;;1.75;1.30;;;15.70;74.00;;;;;;5006235;28;20050;-80
2024/02/07 01:34:18;;;;;;;1.77;1.17;;;15.60;74.10;;;;;;5005410;28;20111;-79
2024/02/07 01:36:47;;;;;;;0.90;0.90;;;15.70;74.10;;;;;;4987142;28;20045;-79
2024/02/07 01:39:16;;;;;;;1.60;1.10;;;15.60;74.00;;;;;;5000586;28;20038;-79
2024/02/07 01:41:59;;;;;;;1.48;0.93;;;15.70;74.10;;;;;;5001690;28;20046;-80
2024/02/07 01:44:29;;;;;;;2.67;1.58;;;15.70;74.20;;;;;;5002421;28;20046;-79
2024/02/07 01:47:13;;;;;;;1.00;1.00;;;15.60;74.00;;;;;;5003237;28;20123;-79
2024/02/07 01:49:45;;;;;;;1.75;1.05;;;15.60;74.00;;;;;;5005919;28;20229;-79
2024/02/07 01:52:10;;;;;;;1.20;1.10;;;15.60;74.00;;;;;;4987031;28;20627;-79
2024/02/07 01:54:40;;;;;;;1.23;0.90;;;15.60;74.00;;;;;;5006375;28;20054;-79
2024/02/07 01:57:06;;;;;;;1.42;1.13;;;15.60;74.00;;;;;;5003589;28;20050;-79
2024/02/07 01:59:32;;;;;;;0.93;0.93;;;15.60;74.00;;;;;;5001018;28;20667;-79
2024/02/07 02:01:58;;;;;;;1.13;1.10;;;15.60;74.00;;;;;;5020672;28;20511;-79
2024/02/07 02:04:23;;;;;;;0.90;0.77;;;15.60;74.00;;;;;;5003370;28;20508;-79
2024/02/07 02:06:50;;;;;;;1.33;1.10;;;15.60;74.00;;;;;;5018470;28;20049;-79
2024/02/07 02:09:16;;;;;;;1.00;1.00;;;15.60;73.90;;;;;;5018330;28;20161;-79
2024/02/07 02:11:41;;;;;;;1.40;0.90;;;15.60;74.10;;;;;;5003462;28;20148;-79
2024/02/07 02:14:07;;;;;;;0.93;0.82;;;15.60;74.00;;;;;;4973355;28;20512;-79
2024/02/07 02:16:33;;;;;;;1.33;1.08;;;15.60;74.00;;;;;;4987021;28;20038;-79
2024/02/07 02:18:58;;;;;;;0.98;0.88;;;15.60;74.10;;;;;;5003257;28;20047;-79
2024/02/07 02:21:27;;;;;;;1.45;1.20;;;15.60;74.00;;;;;;5002106;28;20060;-79
2024/02/07 02:23:57;;;;;;;1.83;1.08;;;15.60;74.00;;;;;;5003865;28;20046;-79
2024/02/07 02:26:53;;;;;;;2.30;1.10;;;15.60;74.00;;;;;;5002319;28;20054;-79
2024/02/07 02:29:32;;;;;;;2.70;0.93;;;15.60;74.00;;;;;;5004587;28;20103;-79
2024/02/07 02:31:58;;;;;;;1.20;1.10;;;15.60;74.00;;;;;;5005080;28;20697;-80
2024/02/07 02:34:23;;;;;;;1.17;1.08;;;15.60;74.00;;;;;;4987114;28;20038;-80
2024/02/07 02:36:49;;;;;;;1.20;1.10;;;15.60;74.10;;;;;;5013492;28;20124;-80
2024/02/07 02:39:15;;;;;;;1.13;1.05;;;15.60;74.00;;;;;;4998169;28;20125;-81
2024/02/07 02:41:41;;;;;;;1.20;1.10;;;15.60;74.10;;;;;;4985324;28;20076;-80
2024/02/07 02:44:06;;;;;;;1.05;1.00;;;15.60;74.10;;;;;;4988170;28;20121;-81
2024/02/07 02:46:32;;;;;;;1.10;1.00;;;15.60;74.00;;;;;;4984183;28;20073;-80
2024/02/07 02:48:57;;;;;;;0.95;0.93;;;15.60;74.10;;;;;;5017227;28;20042;-80
2024/02/07 02:51:23;;;;;;;1.38;1.05;;;15.60;74.00;;;;;;4998713;28;20054;-80
2024/02/07 02:53:49;;;;;;;1.42;1.30;;;15.60;74.10;;;;;;5016517;28;20620;-80
2024/02/07 02:56:15;;;;;;;0.95;0.90;;;15.60;73.90;;;;;;5001685;28;20674;-80
2024/02/07 02:58:40;;;;;;;1.85;1.08;;;15.60;73.90;;;;;;5001761;28;20083;-79
2024/02/07 03:01:06;;;;;;;1.33;1.00;;;15.60;73.90;;;;;;4987402;28;20120;-79
2024/02/07 03:03:32;;;;;;;0.80;0.80;;;15.60;73.90;;;;;;5002905;28;20042;-80
2024/02/07 03:05:58;;;;;;;1.00;0.90;;;15.70;74.00;;;;;;5001946;28;20038;-80
2024/02/07 03:08:39;;;;;;;0.80;0.80;;;15.60;73.90;;;;;;5017131;28;20562;-81
2024/02/07 03:11:09;;;;;;;1.77;1.00;;;15.60;73.90;;;;;;4987129;28;20045;-80
2024/02/07 03:13:34;;;;;;;0.95;0.82;;;15.60;73.90;;;;;;5003587;28;20137;-81
2024/02/07 03:16:05;;;;;;;1.00;1.00;;;15.60;73.90;;;;;;5003767;28;20128;-81
2024/02/07 03:18:32;;;;;;;1.10;1.00;;;15.60;73.80;;;;;;5003124;28;20050;-81
2024/02/07 03:21:00;;;;;;;1.15;1.05;;;15.60;73.80;;;;;;5014301;28;20136;-80
2024/02/07 03:23:28;;;;;;;1.13;1.02;;;15.60;74.00;;;;;;4982043;28;20056;-81
2024/02/07 03:25:53;;;;;;;0.90;0.75;;;15.60;73.80;;;;;;5018300;28;20037;-80
2024/02/07 03:28:19;;;;;;;1.17;0.93;;;15.60;74.20;;;;;;5001209;28;20099;-81
2024/02/07 03:30:45;;;;;;;1.25;1.15;;;15.60;73.90;;;;;;5013269;28;20439;-79
2024/02/07 03:33:12;;;;;;;1.35;1.23;;;15.60;74.50;;;;;;5000206;28;20046;-79
2024/02/07 03:35:38;;;;;;;1.02;0.93;;;15.60;73.70;;;;;;5013838;28;20550;-79
2024/02/07 03:38:03;;;;;;;2.38;1.15;;;15.70;73.90;;;;;;4997945;28;20050;-79
2024/02/07 03:40:29;;;;;;;1.08;0.77;;;15.60;73.90;;;;;;5017630;28;20129;-79
2024/02/07 03:42:55;;;;;;;0.90;0.88;;;15.60;73.90;;;;;;5015692;28;20507;-79
2024/02/07 03:45:21;;;;;;;1.50;1.40;;;15.60;73.90;;;;;;4998312;28;20535;-79
2024/02/07 03:47:47;;;;;;;1.05;0.95;;;15.60;74.00;;;;;;5016197;28;20046;-79
2024/02/07 03:50:15;;;;;;;1.20;0.90;;;15.60;74.00;;;;;;5016025;28;20084;-79
2024/02/07 03:52:44;;;;;;;2.53;1.17;;;15.60;73.80;;;;;;5019037;28;20122;-79
2024/02/07 03:55:10;;;;;;;1.48;1.38;;;15.60;74.00;;;;;;5016446;28;20076;-79
2024/02/07 03:57:36;;;;;;;0.82;0.80;;;15.60;73.90;;;;;;5018102;28;20069;-79
2024/02/07 04:00:08;;;;;;;1.05;1.00;;;15.60;74.00;;;;;;5018186;28;20490;-79
2024/02/07 04:02:37;;;;;;;2.15;1.00;;;15.60;74.00;;;;;;5003885;28;20068;-79
2024/02/07 04:05:03;;;;;;;1.50;1.00;;;15.60;73.80;;;;;;5003305;28;20046;-79
2024/02/07 04:07:28;;;;;;;1.33;1.23;;;15.60;74.00;;;;;;5018634;28;20053;-79
2024/02/07 04:09:55;;;;;;;1.20;1.10;;;15.60;74.00;;;;;;5014812;28;20088;-79
2024/02/07 05:17:19;;;;;;;0.93;0.93;;;15.50;73.90;;;;;;5019505;28;20049;-79
2024/02/07 05:19:48;;;;;;;1.75;1.25;;;15.50;73.80;;;;;;5003356;28;20042;-79
2024/02/07 05:22:13;;;;;;;0.93;0.90;;;15.50;73.90;;;;;;5006170;28;20134;-79
2024/02/07 05:24:40;;;;;;;1.17;0.90;;;15.50;73.90;;;;;;5004264;28;20038;-79
2024/02/07 05:27:06;;;;;;;2.75;0.73;;;15.50;74.00;;;;;;5007506;28;20050;-79
2024/02/07 05:29:35;;;;;;;4.50;1.33;;;15.50;74.00;;;;;;5000150;28;20046;-79
2024/02/07 05:32:01;;;;;;;1.83;1.00;;;15.50;74.00;;;;;;5005395;28;20049;-80
2024/02/07 05:34:27;;;;;;;1.30;1.20;;;15.50;74.00;;;;;;5003943;28;20533;-80
2024/02/07 05:36:52;;;;;;;1.10;1.00;;;15.50;74.00;;;;;;5016721;28;20074;-79
2024/02/07 05:39:18;;;;;;;1.20;1.10;;;15.50;73.90;;;;;;4989093;28;20623;-80
2024/02/07 05:41:43;;;;;;;2.13;0.98;;;15.50;74.00;;;;;;5018916;28;20068;-80
2024/02/07 05:44:09;;;;;;;2.13;1.45;;;15.60;74.20;;;;;;5021146;28;20034;-79
2024/02/07 05:46:36;;;;;;;1.10;1.00;;;15.50;74.00;;;;;;5007836;28;20086;-79
2024/02/07 05:49:02;;;;;;;1.10;1.00;;;15.50;74.10;;;;;;5004730;28;20408;-79
2024/02/07 05:51:27;;;;;;;1.90;1.10;;;15.50;74.00;;;;;;4973858;28;20057;-79
2024/02/07 05:53:57;;;;;;;1.10;1.00;;;15.50;74.10;;;;;;5022932;28;20069;-79
2024/02/07 05:56:23;;;;;;;1.23;1.10;;;15.50;74.10;;;;;;5003713;28;20076;-79
2024/02/07 05:58:49;;;;;;;1.48;0.80;;;15.50;74.10;;;;;;5006587;28;20042;-79
2024/02/07 06:01:15;;;;;;;1.17;1.08;;;15.50;74.90;;;;;;5005488;28;20401;-79
2024/02/07 06:03:41;;;;;;;1.38;1.27;;;15.50;74.20;;;;;;5017721;28;21159;-79
2024/02/07 06:06:06;;;;;;;1.23;1.13;;;15.50;74.10;;;;;;5004591;28;20495;-79
2024/02/07 06:08:33;;;;;;;1.20;1.20;;;15.50;74.30;;;;;;5002461;28;20034;-78
2024/02/07 06:10:59;;;;;;;0.93;0.93;;;15.50;74.10;;;;;;5004726;28;20100;-79
2024/02/07 06:13:24;;;;;;;1.10;1.00;;;15.50;74.20;;;;;;4987552;28;20042;-78
2024/02/07 06:15:50;;;;;;;1.85;1.13;;;15.50;74.10;;;;;;4998395;28;20061;-78
2024/02/07 06:18:17;;;;;;;1.63;1.13;;;15.60;74.20;;;;;;5018970;28;20121;-78
2024/02/07 06:20:42;;;;;;;0.75;0.75;;;15.50;74.40;;;;;;4982659;28;20042;-78
2024/02/07 06:23:08;;;;;;;1.20;0.80;;;15.60;74.20;;;;;;5001345;28;20037;-79
2024/02/07 06:25:33;;;;;;;0.88;0.80;;;15.60;74.20;;;;;;4985059;28;22234;-78
2024/02/07 06:27:59;;;;;;;1.83;1.20;;;15.60;74.30;;;;;;5001989;28;20080;-78
2024/02/07 06:30:25;;;;;;;1.48;1.17;;;15.60;74.30;;;;;;4971814;28;20074;-79
2024/02/07 06:32:50;;;;;;;2.35;0.93;;;15.60;74.50;;;;;;5002704;28;20535;-78
2024/02/07 06:35:16;;;;;;;1.60;0.93;;;15.60;75.30;;;;;;5012237;28;20042;-78
2024/02/07 06:37:42;;;;;;;1.58;1.23;;;15.60;75.30;;;;;;4654017;28;9999693;-77
2024/02/07 06:40:08;;;;;;;1.20;1.10;;;15.60;74.90;;;;;;5013210;28;20049;-76
2024/02/07 06:42:34;;;;;;;2.33;1.17;;;15.60;75.10;;;;;;5011296;28;20107;-77
2024/02/07 06:44:59;;;;;;;1.23;1.10;;;15.60;75.30;;;;;;4998175;28;20132;-77
2024/02/07 06:47:25;;;;;;;1.08;0.98;;;15.60;75.30;;;;;;4985015;28;20443;-77
2024/02/07 06:49:50;;;;;;;1.00;0.90;;;15.60;75.20;;;;;;4985613;28;20411;-77
2024/02/07 06:52:16;;;;;;;1.38;0.90;;;15.60;75.40;;;;;;5013734;28;20074;-78
2024/02/07 06:54:41;;;;;;;1.15;1.10;;;15.60;75.60;;;;;;4994276;28;20041;-76
2024/02/07 06:57:07;;;;;;;1.25;1.13;;;15.60;75.40;;;;;;4994859;28;20100;-77
2024/02/07 06:59:32;;;;;;;1.63;0.95;;;15.60;75.50;;;;;;4998462;28;20527;-77
2024/02/07 07:01:58;;;;;;;1.33;0.93;;;15.60;75.50;;;;;;5013047;28;20042;-77
2024/02/07 07:04:23;;;;;;;1.20;1.00;;;15.70;75.50;;;;;;4984115;28;20054;-76
2024/02/07 07:06:49;;;;;;;1.20;1.10;;;15.60;75.40;;;;;;5013305;28;20038;-79
2024/02/07 07:09:15;;;;;;;0.80;0.80;;;15.70;75.60;;;;;;4998738;28;20045;-78
2024/02/07 07:11:40;;;;;;;0.90;0.90;;;15.60;75.50;;;;;;4999682;28;20526;-79
2024/02/07 07:14:07;;;;;;;0.90;0.90;;;15.70;75.60;;;;;;4997748;28;20046;-79
2024/02/07 07:16:32;;;;;;;2.78;1.30;;;15.60;75.60;;;;;;5015041;28;20038;-79
2024/02/07 07:18:59;;;;;;;2.08;1.10;;;15.60;76.00;;;;;;4978751;28;20120;-77
2024/02/07 07:21:24;;;;;;;1.15;1.05;;;15.60;75.50;;;;;;5011902;28;20492;-77
2024/02/07 07:23:50;;;;;;;0.82;0.70;;;15.60;75.40;;;;;;5009731;28;20042;-79
2024/02/07 07:26:16;;;;;;;1.27;1.15;;;15.70;75.40;;;;;;4995264;28;20074;-79
2024/02/07 07:28:41;;;;;;;2.45;1.10;;;15.70;75.50;;;;;;4965013;28;20125;-79
2024/02/07 07:31:07;;;;;;;1.05;0.90;;;15.70;75.50;;;;;;5008262;28;20081;-79
2024/02/07 07:33:33;;;;;;;0.73;0.68;;;15.60;75.20;;;;;;5012033;28;20030;-80
2024/02/07 07:35:58;;;;;;;1.10;1.00;;;15.70;75.10;;;;;;5000597;28;20056;-79
2024/02/07 07:38:24;;;;;;;0.80;0.80;;;15.70;74.90;;;;;;4996538;28;20046;-77
2024/02/07 07:40:50;;;;;;;0.90;0.90;;;15.70;74.80;;;;;;4980979;28;20046;-79
2024/02/07 07:43:15;;;;;;;0.80;0.68;;;15.70;74.80;;;;;;5011587;28;20371;-77
2024/02/07 07:45:41;;;;;;;1.10;1.00;;;15.70;74.80;;;;;;4994009;28;20042;-77
2024/02/07 07:48:08;;;;;;;1.20;1.10;;;15.70;74.90;;;;;;4995881;28;20274;-77
2024/02/07 07:50:33;;;;;;;0.90;0.90;;;15.70;74.80;;;;;;5010111;28;20141;-77
2024/02/07 07:52:59;;;;;;;0.95;0.90;;;15.70;74.90;;;;;;5005626;28;20038;-79
2024/02/07 07:55:24;;;;;;;0.80;0.80;;;15.70;75.00;;;;;;4998429;28;20125;-79
2024/02/07 07:57:50;;;;;;;1.23;1.13;;;15.70;74.90;;;;;;4981339;28;20046;-77
2024/02/07 08:00:16;;;;;;;0.85;0.85;;;15.70;74.90;;;;;;4981913;28;20493;-79
2024/02/07 08:02:41;;;;;;;0.70;0.70;;;15.70;74.70;;;;;;4974068;28;20160;-79
2024/02/07 08:05:07;;;;;;;0.90;0.90;;;15.70;74.80;;;;;;4961003;28;20061;-79
2024/02/07 08:07:33;;;;;;;1.55;0.90;;;15.70;74.70;;;;;;4977927;28;20717;-78
2024/02/07 08:09:59;;;;;;;2.17;1.42;;;15.70;74.80;;;;;;4973825;28;20495;-79
2024/02/07 08:12:24;;;;;;;0.88;0.88;;;15.80;75.00;;;;;;5014034;28;20104;-79
2024/02/07 08:14:50;;;;;;;1.67;0.80;;;15.80;74.80;;;;;;4982039;28;20038;-79
2024/02/07 08:17:18;;;;;;;1.50;0.98;;;15.80;74.80;;;;;;5001121;28;20068;-80
2024/02/07 08:19:46;;;;;;;0.77;0.70;;;15.70;74.80;;;;;;4987556;28;20125;-79
2024/02/07 08:22:11;;;;;;;1.02;0.90;;;15.80;75.00;;;;;;5002714;28;20041;-79
2024/02/07 08:24:37;;;;;;;0.90;0.90;;;15.80;74.80;;;;;;4999079;28;20666;-79
2024/02/07 08:27:02;;;;;;;0.90;0.90;;;15.80;75.00;;;;;;4998487;28;20042;-79
2024/02/07 08:29:29;;;;;;;1.13;0.80;;;15.80;75.20;;;;;;5013308;28;20421;-79
2024/02/07 08:31:56;;;;;;;0.88;0.73;;;15.70;75.40;;;;;;5016307;28;20033;-79
2024/02/07 08:34:22;;;;;;;1.58;0.98;;;15.70;75.40;;;;;;4995651;28;20515;-80
2024/02/07 08:36:47;;;;;;;1.00;0.90;;;15.70;75.20;;;;;;5001295;28;20065;-80
2024/02/07 08:39:14;;;;;;;1.08;0.80;;;15.70;75.30;;;;;;5014770;28;20038;-81
2024/02/07 08:41:40;;;;;;;1.25;1.15;;;15.70;75.30;;;;;;4998180;28;20069;-80
2024/02/07 08:44:06;;;;;;;1.52;0.90;;;15.70;75.40;;;;;;5000752;28;20054;-80
2024/02/07 08:46:32;;;;;;;0.70;0.70;;;15.70;75.50;;;;;;5016033;28;20045;-80
2024/02/07 08:48:58;;;;;;;1.23;0.80;;;15.60;75.60;;;;;;5016568;28;20041;-79
2024/02/07 08:51:23;;;;;;;0.73;0.73;;;15.60;75.60;;;;;;5014189;28;20034;-79
2024/02/07 08:53:49;;;;;;;1.92;1.15;;;15.60;75.40;;;;;;4998796;28;20026;-80
2024/02/07 08:56:14;;;;;;;0.90;0.80;;;15.60;75.40;;;;;;5000577;28;20046;-80
2024/02/07 08:58:40;;;;;;;0.80;0.80;;;15.70;75.50;;;;;;4999627;28;20038;-80
2024/02/07 09:01:06;;;;;;;1.50;0.88;;;15.60;75.40;;;;;;4998506;28;20042;-80
2024/02/07 09:03:32;;;;;;;1.00;0.90;;;15.60;75.50;;;;;;5001605;28;20045;-80
2024/02/07 09:05:58;;;;;;;1.00;0.90;;;15.60;75.50;;;;;;5001942;28;20030;-78
2024/02/07 09:08:23;;;;;;;0.80;0.70;;;15.60;75.50;;;;;;4998205;28;20504;-78
2024/02/07 09:10:49;;;;;;;1.25;0.80;;;15.60;76.20;;;;;;5015873;28;20420;-79
2024/02/07 09:13:14;;;;;;;1.20;0.70;;;15.70;75.50;;;;;;5002688;28;20058;-79
2024/02/07 09:15:40;;;;;;;2.17;0.98;;;15.60;75.50;;;;;;4997914;28;20384;-79
2024/02/07 09:18:05;;;;;;;0.60;0.60;;;15.60;75.50;;;;;;4999690;28;20950;-79
2024/02/07 09:20:31;;;;;;;0.90;0.90;;;15.60;75.60;;;;;;5001992;28;20072;-79
2024/02/07 09:22:56;;;;;;;0.80;0.80;;;15.60;75.50;;;;;;5017442;28;20026;-79
2024/02/07 09:25:22;;;;;;;0.90;0.90;;;15.60;75.50;;;;;;5001049;28;20080;-77
2024/02/07 09:27:48;;;;;;;0.80;0.80;;;15.60;75.60;;;;;;5010142;28;20042;-78
2024/02/07 09:30:13;;;;;;;0.73;0.73;;;15.60;75.50;;;;;;5013547;28;20053;-79
2024/02/07 09:32:43;;;;;;;0.80;0.80;;;15.60;75.60;;;;;;5001544;28;20045;-79
2024/02/07 09:35:09;;;;;;;0.90;0.73;;;15.60;75.50;;;;;;4992276;28;20894;-79
2024/02/07 09:37:36;;;;;;;0.60;0.60;;;15.60;75.50;;;;;;5005782;28;20049;-80
2024/02/07 09:40:02;;;;;;;0.70;0.70;;;15.60;75.60;;;;;;5016860;28;20034;-79
2024/02/07 09:42:28;;;;;;;0.77;0.77;;;15.60;75.90;;;;;;5001814;28;20148;-79
2024/02/07 09:44:54;;;;;;;1.02;1.02;;;15.60;75.70;;;;;;5018229;28;20407;-80
2024/02/07 09:47:20;;;;;;;0.85;0.60;;;15.60;75.70;;;;;;5001375;28;20054;-79
2024/02/07 09:49:46;;;;;;;0.60;0.60;;;15.60;76.50;;;;;;5002541;28;20543;-80
2024/02/07 09:52:13;;;;;;;0.70;0.70;;;15.60;75.70;;;;;;5016180;28;20045;-79
2024/02/07 09:54:40;;;;;;;1.15;0.60;;;15.60;76.30;;;;;;5000464;28;20069;-79
2024/02/07 09:57:05;;;;;;;0.80;0.80;;;15.60;75.70;;;;;;5003889;28;20054;-79
2024/02/07 09:59:32;;;;;;;0.70;0.70;;;15.60;75.70;;;;;;4985618;28;20056;-79
2024/02/07 10:01:57;;;;;;;0.77;0.60;;;15.60;75.60;;;;;;5005408;28;20056;-79
2024/02/07 10:04:26;;;;;;;0.80;0.80;;;15.60;75.80;;;;;;5005828;28;20046;-78
2024/02/07 10:06:53;;;;;;;1.20;1.10;;;15.60;75.90;;;;;;5017487;28;20581;-79
2024/02/07 10:09:19;;;;;;;1.00;1.00;;;15.60;76.60;;;;;;5005720;28;20776;-79
2024/02/07 10:11:45;;;;;;;0.95;0.80;;;15.60;76.60;;;;;;5018165;28;20042;-79
2024/02/07 10:14:11;;;;;;;0.95;0.95;;;15.60;75.60;;;;;;4986223;28;20050;-79
2024/02/07 10:16:36;;;;;;;0.70;0.70;;;15.60;75.80;;;;;;5006843;28;20046;-79
2024/02/07 10:19:02;;;;;;;0.77;0.77;;;15.60;75.90;;;;;;4989589;28;20065;-79
2024/02/07 10:21:46;;;;;;;1.60;1.25;;;15.70;75.90;;;;;;5001479;28;20676;-79
2024/02/07 10:24:11;;;;;;;0.97;0.97;;;15.70;75.50;;;;;;5001847;28;20407;-79
2024/02/07 10:26:37;;;;;;;1.33;0.80;;;15.70;75.50;;;;;;5003315;28;20049;-80
2024/02/07 10:29:04;;;;;;;14.95;9.25;;;15.70;76.40;;;;;;5001601;28;20546;-79
2024/02/07 10:31:30;;;;;;;23.42;12.93;;;15.80;75.90;;;;;;4987025;28;20066;-79
2024/02/07 10:33:57;;;;;;;15.07;10.38;;;15.80;75.40;;;;;;5002145;28;20073;-80
2024/02/07 10:36:23;;;;;;;21.17;13.20;;;15.80;75.00;;;;;;5018408;28;20058;-78
2024/02/07 10:38:50;;;;;;;29.15;19.50;;;15.90;75.00;;;;;;5015155;28;20080;-80
2024/02/07 10:41:16;;;;;;;21.88;16.50;;;15.90;75.00;;;;;;5016816;28;20120;-79
2024/02/07 10:43:41;;;;;;;25.75;18.48;;;15.90;74.80;;;;;;5002981;28;20132;-79
2024/02/07 10:46:10;;;;;;;27.17;18.30;;;15.90;74.80;;;;;;5016749;28;20662;-80
2024/02/07 10:48:35;;;;;;;38.83;24.45;;;15.90;74.60;;;;;;5015793;28;20096;-79
2024/02/07 10:51:02;;;;;;;26.65;17.90;;;15.90;74.70;;;;;;5018882;28;20038;-79
2024/02/07 10:53:28;;;;;;;17.73;12.55;;;16.00;74.60;;;;;;5004513;28;20060;-80
2024/02/07 10:55:57;;;;;;;26.52;17.67;;;16.00;75.00;;;;;;4656594;28;10000040;-80
2024/02/07 10:58:24;;;;;;;50.78;30.00;;;16.10;74.10;;;;;;4999569;28;20049;-80
2024/02/07 11:00:54;;;;;;;49.42;28.90;;;16.20;73.70;;;;;;5020030;28;20365;-80
2024/02/07 11:03:23;;;;;;;41.15;25.85;;;16.20;73.80;;;;;;5021681;28;20125;-80
2024/02/07 11:05:49;;;;;;;31.48;19.63;;;16.20;73.50;;;;;;5001677;28;20416;-79
2024/02/07 11:08:15;;;;;;;24.85;18.00;;;16.10;73.70;;;;;;5014370;28;20057;-80
2024/02/07 11:10:41;;;;;;;26.55;17.80;;;16.10;74.60;;;;;;5027330;28;20070;-79
2024/02/07 11:13:09;;;;;;;25.65;17.20;;;16.10;73.80;;;;;;5004700;28;20045;-80
2024/02/07 11:15:35;;;;;;;25.52;16.88;;;16.10;73.70;;;;;;5011518;28;20035;-81
2024/02/07 11:18:01;;;;;;;26.15;18.27;;;16.10;73.70;;;;;;5002765;28;20041;-81
2024/02/07 11:20:28;;;;;;;28.80;16.90;;;16.10;73.80;;;;;;5017831;28;20038;-80
2024/02/07 11:22:54;;;;;;;23.08;16.23;;;16.10;73.80;;;;;;5016633;28;20737;-80
2024/02/07 11:25:20;;;;;;;24.05;17.13;;;16.10;73.80;;;;;;4987606;28;20132;-80
2024/02/07 11:27:45;;;;;;;28.23;18.92;;;16.10;73.80;;;;;;5016283;28;20046;-81
2024/02/07 11:30:11;;;;;;;40.60;24.13;;;16.20;73.70;;;;;;4997223;28;20050;-81
2024/02/07 11:32:40;;;;;;;35.78;21.38;;;16.20;73.60;;;;;;5001354;28;20105;-80
2024/02/07 11:35:09;;;;;;;30.35;19.27;;;16.30;73.60;;;;;;5016939;28;20042;-81
2024/02/07 11:37:38;;;;;;;26.20;17.20;;;16.40;73.20;;;;;;5002960;28;20057;-81
2024/02/07 11:40:08;;;;;;;29.40;18.83;;;16.50;72.80;;;;;;4999493;28;20046;-80
2024/02/07 11:42:40;;;;;;;26.17;16.33;;;16.70;72.80;;;;;;5000926;28;20072;-80
2024/02/07 11:45:11;;;;;;;24.67;16.92;;;16.70;72.30;;;;;;5011342;28;20117;-80
2024/02/07 11:47:42;;;;;;;24.33;16.00;;;16.80;72.30;;;;;;4996599;28;20080;-79
2024/02/07 11:50:17;;;;;;;24.08;15.00;;;16.80;71.80;;;;;;5002033;28;20053;-81
2024/02/07 11:52:43;;;;;;;20.55;14.38;;;17.00;72.00;;;;;;5004480;28;20049;-80
2024/02/07 11:55:16;;;;;;;19.58;13.60;;;17.10;71.50;;;;;;5001172;28;20041;-80
2024/02/07 11:57:42;;;;;;;18.65;12.52;;;17.10;71.20;;;;;;5001696;28;20042;-81
2024/02/07 12:00:11;;;;;;;17.52;11.48;;;17.20;71.10;;;;;;5014187;28;20046;-82
2024/02/07 12:02:37;;;;;;;18.70;12.05;;;17.20;70.80;;;;;;4983623;28;20068;-82
2024/02/07 12:05:03;;;;;;;16.15;11.82;;;17.20;70.80;;;;;;5000126;28;20511;-82
2024/02/07 12:07:29;;;;;;;13.18;10.57;;;17.30;70.90;;;;;;5004344;28;20085;-81
2024/02/07 12:09:55;;;;;;;15.25;10.95;;;17.40;70.70;;;;;;5001486;28;20049;-82
2024/02/07 12:12:21;;;;;;;13.82;10.73;;;17.40;70.50;;;;;;5002688;28;20029;-82
2024/02/07 12:14:48;;;;;;;16.20;10.57;;;17.40;70.70;;;;;;5002356;28;20034;-82
2024/02/07 12:17:14;;;;;;;14.95;10.48;;;17.40;70.60;;;;;;5000935;28;20046;-82
2024/02/07 12:19:44;;;;;;;13.07;9.55;;;17.40;70.50;;;;;;5018752;28;20022;-82
2024/02/07 12:22:17;;;;;;;16.00;10.23;;;17.40;70.50;;;;;;4983782;28;20031;-81
2024/02/07 12:24:43;;;;;;;11.90;8.87;;;17.40;71.60;;;;;;5001738;28;20049;-83
2024/02/07 12:27:10;;;;;;;15.15;9.07;;;17.50;71.50;;;;;;5001715;28;20056;-82
2024/02/07 12:29:36;;;;;;;11.23;8.23;;;17.50;71.50;;;;;;5010176;28;20066;-82
2024/02/07 12:32:02;;;;;;;8.80;7.85;;;17.50;71.80;;;;;;4998736;28;20069;-81
2024/02/07 12:34:28;;;;;;;10.50;8.02;;;17.40;72.50;;;;;;5002726;28;20041;-79
2024/02/07 12:36:53;;;;;;;14.00;7.70;;;17.50;72.10;;;;;;5014633;28;20427;-80
2024/02/07 12:39:22;;;;;;;10.30;8.13;;;17.40;72.10;;;;;;5014638;28;20030;-84
2024/02/07 12:41:48;;;;;;;10.13;9.02;;;17.40;72.20;;;;;;5016309;28;20111;-84
2024/02/07 12:44:17;;;;;;;10.55;7.68;;;17.50;72.20;;;;;;5005087;28;20054;-84
2024/02/07 12:46:43;;;;;;;12.23;8.40;;;17.50;72.10;;;;;;5002222;28;20030;-85
2024/02/07 12:49:08;;;;;;;10.88;7.57;;;17.50;72.10;;;;;;4998204;28;20038;-86
2024/02/07 12:51:34;;;;;;;8.88;7.97;;;17.60;72.30;;;;;;5012160;28;20391;-88
2024/02/07 12:54:00;;;;;;;10.57;7.80;;;17.60;72.00;;;;;;4999134;28;20145;-88
2024/02/07 12:56:26;;;;;;;7.68;6.85;;;17.60;72.20;;;;;;4979526;28;20044;-88
2024/02/07 12:58:51;;;;;;;8.07;7.28;;;17.60;72.30;;;;;;4999451;28;20057;-87
2024/02/07 13:01:20;;;;;;;9.85;7.55;;;17.60;72.30;;;;;;4998488;28;20037;-88
2024/02/07 13:03:46;;;;;;;8.98;7.00;;;17.60;72.60;;;;;;4999373;28;20038;-87
2024/02/07 13:06:12;;;;;;;7.80;6.95;;;17.60;72.60;;;;;;4986943;28;20045;-88
2024/02/07 13:08:37;;;;;;;6.93;6.20;;;17.60;72.60;;;;;;5020782;28;20038;-88
2024/02/07 13:11:03;;;;;;;6.78;6.18;;;17.60;72.60;;;;;;4987206;28;20037;-87
2024/02/07 13:13:29;;;;;;;9.95;6.40;;;17.70;72.50;;;;;;5005176;28;20065;-87
2024/02/07 13:15:58;;;;;;;6.65;6.05;;;17.70;72.40;;;;;;5022582;28;20046;-88
2024/02/07 13:18:23;;;;;;;7.10;6.40;;;17.70;72.30;;;;;;5006179;28;20065;-87
2024/02/07 13:20:49;;;;;;;7.18;6.47;;;17.70;72.30;;;;;;4986056;28;20035;-87
2024/02/07 13:23:16;;;;;;;7.30;6.60;;;17.80;72.40;;;;;;4985435;28;20100;-87
2024/02/07 13:25:43;;;;;;;6.20;5.63;;;17.80;72.10;;;;;;5021338;28;20034;-86
2024/02/07 13:28:08;;;;;;;5.82;5.30;;;17.80;72.10;;;;;;5005611;28;20048;-87
2024/02/07 13:30:34;;;;;;;6.55;4.90;;;17.90;71.90;;;;;;5021545;28;20037;-87
2024/02/07 13:32:59;;;;;;;5.00;4.60;;;17.90;72.00;;;;;;5016763;28;20630;-87
2024/02/07 13:35:25;;;;;;;6.35;5.10;;;17.90;72.10;;;;;;4992361;28;20096;-86
2024/02/07 13:37:58;;;;;;;6.05;5.53;;;17.90;72.00;;;;;;5006106;28;20104;-87
2024/02/07 13:40:25;;;;;;;5.57;5.07;;;17.90;71.90;;;;;;5004392;28;20042;-87
2024/02/07 13:42:51;;;;;;;5.50;5.05;;;18.00;71.70;;;;;;4985362;28;20046;-87
2024/02/07 13:45:19;;;;;;;5.32;4.85;;;17.90;71.80;;;;;;5020178;28;20398;-87